Latest Weather Observations for Badgerys Creek

IDN60801

Issued at 11:32 pm EST Tuesday 4 August 2015 (issued every 30 minutes, with the page automatically refreshed every 10 minutes)

About weather observations | Map of weather stations | Latest weather observations for NSW | Other Formats
Station Details ID: 067108 Name: BADGERYS CREEK AWS Lat: -33.90 Lon: 150.73 Height: 81.2 m
Data from the previous 72 hours. | See also: Recent months at Badgerys Creek
Date/Time
EST
Temp
°C
App
Temp
°C
Dew
Point
Rel
Hum
%
Delta-T
°C
Wind Press
QNH
hPa
Press
MSL
hPa
Rain
since 9 am
mm
Dir
 
Spd
km/h
Gust
km/h
Spd
kts
Gust
kts
04/11:30pm 6.8 1.4 -1.6 55 3.1 WNW 17 28 9 15 - - 0.0
04/11:00pm 6.1 1.5 -1.1 60 2.7 SW 13 19 7 10 - - 0.0
04/10:30pm 5.6 1.0 -1.3 61 2.6 WSW 13 17 7 9 - - 0.0
04/10:00pm 6.2 1.6 -1.2 59 2.8 WSW 13 17 7 9 - - 0.0
04/09:30pm 6.9 1.9 -1.0 57 3.0 WSW 15 22 8 12 - - 0.0
04/09:00pm 7.0 2.4 -0.9 57 3.0 W 13 20 7 11 - - 0.0
04/08:30pm 7.6 2.3 -0.4 57 3.1 WSW 17 24 9 13 - - 0.0
04/08:00pm 7.7 2.5 0.0 58 3.0 WSW 17 20 9 11 - - 0.0
04/07:30pm 8.1 3.4 0.6 59 3.0 SW 15 19 8 10 - - 0.0
04/07:00pm 8.1 5.4 3.6 73 1.9 SW 7 15 4 8 - - 0.0
04/06:30pm 7.7 5.8 2.8 71 2.1 NE 2 4 1 2 - - 0.0
04/06:00pm 7.7 5.8 2.6 70 2.1 NNE 2 4 1 2 - - 0.0
04/05:30pm 10.1 7.7 2.0 57 3.4 NNE 4 6 2 3 - - 0.0
04/05:00pm 10.4 7.1 2.5 58 3.4 NNE 9 11 5 6 - - 0.0
04/04:30pm 11.7 7.6 2.5 53 4.0 NNE 13 17 7 9 - - 0.0
04/04:00pm 12.3 8.6 2.5 51 4.3 NNE 11 17 6 9 - - 0.0
04/03:30pm 12.7 9.0 2.6 50 4.4 N 11 17 6 9 - - 0.0
04/03:00pm 12.7 9.0 2.6 50 4.4 N 11 17 6 9 - - 0.0
04/02:30pm 13.0 9.6 2.0 47 4.8 N 9 20 5 11 - - 0.0
04/02:00pm 13.2 9.8 2.1 47 4.8 NNE 9 17 5 9 - - 0.0
04/01:30pm 13.1 10.1 2.1 47 4.8 NNE 7 17 4 9 - - 0.0
04/01:00pm 12.8 9.7 1.5 46 4.8 N 7 15 4 8 - - 0.0
04/12:30pm 13.1 10.1 1.1 44 5.1 NNE 6 11 3 6 - - 0.0
04/12:00pm 12.6 9.6 1.9 48 4.6 NE 7 11 4 6 - - 0.0
04/11:30am 11.8 9.1 0.6 46 4.7 WSW 4 9 2 5 - - 0.0
04/11:00am 11.0 7.9 0.4 48 4.4 SW 6 9 3 5 - - 0.0
04/10:30am 10.4 7.5 1.5 54 3.7 SW 6 9 3 5 - - 0.0
04/10:00am 9.5 6.6 2.4 61 3.0 WSW 7 11 4 6 - - 0.0
04/09:30am 8.7 6.0 2.5 65 2.6 WSW 6 9 3 5 - - 0.0
04/09:00am 7.4 5.5 3.1 74 1.8 SW 2 7 1 4 - - 0.0
04/08:30am 5.6 4.0 2.4 80 1.3 CALM 0 0 0 0 - - 0.0
04/08:00am 3.6 2.0 2.6 93 0.4 CALM 0 0 0 0 - - 0.0
04/07:30am 2.4 -0.1 1.5 94 0.3 SW 4 6 2 3 - - 0.0
04/07:00am 3.0 0.5 1.5 90 0.6 SW 4 4 2 2 - - 0.0
04/06:30am 2.8 0.7 1.8 93 0.4 SW 2 2 1 1 - - 0.0
04/06:00am 3.2 1.2 2.5 95 0.3 SW 2 4 1 2 - - 0.0
04/05:30am 3.8 2.2 2.3 90 0.6 CALM 0 0 0 0 - - 0.0
04/05:00am 3.8 1.7 1.7 86 0.8 SW 2 4 1 2 - - 0.0
04/04:30am 3.6 1.1 1.8 88 0.7 SW 4 4 2 2 - - 0.0
04/04:00am 3.8 1.5 0.5 79 1.3 SSW 2 4 1 2 - - 0.0
04/03:30am 4.6 1.6 0.7 76 1.5 SSW 6 9 3 5 - - 0.0
04/03:00am 5.7 2.6 1.1 72 1.8 S 7 9 4 5 - - 0.0
04/02:30am 4.5 1.3 0.6 76 1.5 SW 7 9 4 5 - - 0.0
04/02:00am 6.6 4.0 0.9 67 2.3 SW 4 6 2 3 - - 0.0
04/01:30am 5.4 1.9 1.3 75 1.6 SW 9 9 5 5 - - 0.0
04/01:00am 4.2 0.7 1.1 80 1.2 SSW 9 11 5 6 - - 0.0
04/12:30am 5.4 2.2 0.8 72 1.8 SW 7 9 4 5 - - 0.0
04/12:00am 6.9 3.4 1.4 68 2.2 WSW 9 13 5 7 - - 0.0
 
Date/Time
EST
Temp
°C
App
Temp
°C
Dew
Point
Rel
Hum
%
Delta-T
°C
Wind Press
QNH
hPa
Press
MSL
hPa
Rain
since 9 am
mm
Dir
 
Spd
km/h
Gust
km/h
Spd
kts
Gust
kts
03/11:30pm 7.0 4.1 1.7 69 2.2 SW 6 9 3 5 - - 0.0
03/11:00pm 7.0 4.5 1.5 68 2.2 W 4 9 2 5 - - 0.0
03/10:30pm 8.1 5.7 2.1 66 2.5 W 4 6 2 3 - - 0.0
03/10:00pm 8.2 6.2 2.2 66 2.5 SW 2 4 1 2 - - 0.0
03/09:30pm 8.7 5.4 2.3 64 2.7 SW 9 13 5 7 - - 0.0
03/09:00pm 9.3 5.6 2.2 61 3.0 WSW 11 17 6 9 - - 0.0
03/08:30pm 10.2 5.3 2.3 58 3.4 WSW 17 22 9 12 - - 0.0
03/08:00pm 10.9 6.1 2.7 57 3.6 W 17 24 9 13 - - 0.0
03/07:30pm 11.2 6.5 3.3 58 3.5 WSW 17 24 9 13 - - 0.0
03/07:00pm 12.4 6.4 3.1 53 4.1 SW 24 32 13 17 - - 0.0
03/06:30pm 11.8 9.2 3.3 56 3.8 SW 6 9 3 5 - - 0.0
03/06:00pm 12.3 7.6 3.0 53 4.1 WSW 17 26 9 14 - - 0.0
03/05:30pm 13.0 8.7 3.1 51 4.4 W 15 22 8 12 - - 0.0
03/05:00pm 13.5 7.4 2.7 48 4.8 W 24 35 13 19 - - 0.0
03/04:30pm 13.6 7.1 2.8 48 4.8 WSW 26 35 14 19 - - 0.0
03/04:00pm 14.1 7.3 3.0 47 5.0 WSW 28 39 15 21 - - 0.0
03/03:30pm 15.2 8.1 3.4 45 5.4 WSW 30 41 16 22 - - 0.0
03/03:00pm 15.9 9.8 2.7 41 6.0 WSW 24 35 13 19 - - 0.0
03/02:30pm 16.5 10.5 3.6 42 6.0 WSW 24 39 13 21 - - 0.0
03/02:00pm 16.6 11.4 3.3 41 6.1 WSW 20 28 11 15 - - 0.0
03/01:30pm 16.8 12.3 4.2 43 5.9 SW 17 22 9 12 - - 0.0
03/01:00pm 16.7 13.0 4.7 45 5.7 WSW 13 19 7 10 - - 0.0
03/12:30pm 16.4 13.0 3.8 43 5.9 SW 11 17 6 9 - - 0.0
03/12:00pm 15.9 13.3 3.0 42 5.9 WSW 6 13 3 7 - - 0.0
03/11:30am 15.7 12.6 3.8 45 5.5 WNW 9 17 5 9 - - 0.0
03/11:00am 15.0 11.8 2.9 44 5.5 W 9 17 5 9 - - 0.0
03/10:30am 14.7 11.6 3.8 48 5.0 NNW 9 17 5 9 - - 0.0
03/10:00am 13.9 11.3 4.2 52 4.5 NNE 7 13 4 7 - - 0.0
03/09:30am 12.7 10.1 3.4 53 4.2 N 6 7 3 4 - - 0.0
03/09:00am 10.9 7.9 4.1 63 3.0 N 9 11 5 6 - - 0.0
03/08:30am 9.9 6.4 3.6 65 2.8 N 11 13 6 7 - - 0.0
03/08:00am 7.9 4.3 3.0 71 2.1 N 11 13 6 7 - - 0.0
03/07:30am 6.2 2.5 2.5 77 1.5 N 11 19 6 10 - - 0.0
03/07:00am 4.7 0.7 0.8 76 1.5 WSW 11 13 6 7 - - 0.0
03/06:30am 5.8 2.1 0.2 67 2.2 WSW 9 13 5 7 - - 0.0
03/06:00am 6.8 4.0 -0.6 59 2.8 WSW 4 6 2 3 - - 0.0
03/05:30am 7.8 5.4 -0.4 56 3.2 WSW 2 2 1 1 - - 0.0
03/05:00am 7.8 4.6 -0.2 57 3.1 WSW 6 6 3 3 - - 0.0
03/04:30am 6.6 3.0 0.5 65 2.4 WSW 9 13 5 7 - - 0.0
03/04:00am 6.4 3.3 0.1 64 2.5 SW 6 7 3 4 - - 0.0
03/03:30am 7.6 4.3 0.3 60 2.9 SSW 7 11 4 6 - - 0.0
03/03:00am 8.6 4.9 -0.2 54 3.5 SSW 9 13 5 7 - - 0.0
03/02:30am 9.3 3.7 0.2 53 3.7 SSW 19 24 10 13 - - 0.0
03/02:00am 9.8 4.7 0.7 53 3.7 SSW 17 26 9 14 - - 0.0
03/01:30am 10.0 5.4 1.4 55 3.6 SSW 15 19 8 10 - - 0.0
03/01:00am 10.4 6.2 1.8 55 3.6 SSW 13 20 7 11 - - 0.0
03/12:30am 11.2 8.2 4.0 61 3.2 SSW 9 13 5 7 - - 0.0
03/12:00am 11.4 8.0 5.9 69 2.6 SW 13 15 7 8 - - 0.0
 
Date/Time
EST
Temp
°C
App
Temp
°C
Dew
Point
Rel
Hum
%
Delta-T
°C
Wind Press
QNH
hPa
Press
MSL
hPa
Rain
since 9 am
mm
Dir
 
Spd
km/h
Gust
km/h
Spd
kts
Gust
kts
02/11:30pm 12.1 9.7 7.0 71 2.5 SSE 9 13 5 7 - - 0.0
02/11:00pm 13.0 11.0 7.0 67 2.9 SE 7 9 4 5 - - 0.0
02/10:30pm 14.3 11.2 7.1 62 3.5 WNW 13 20 7 11 - - 0.0
02/10:00pm 13.3 10.7 7.7 69 2.8 WNW 11 17 6 9 - - 0.0
02/09:30pm 14.6 13.0 7.9 64 3.3 NW 6 9 3 5 - - 0.0
02/09:00pm 15.4 13.6 7.9 61 3.8 NNW 7 11 4 6 - - 0.0
02/08:30pm 15.8 13.6 7.8 59 4.0 W 9 15 5 8 - - 0.0
02/08:00pm 15.6 13.1 8.4 62 3.7 NNW 11 17 6 9 - - 0.0
02/07:30pm 17.0 13.4 8.2 56 4.5 WNW 17 26 9 14 - - 0.0
02/07:00pm 17.4 14.5 8.0 54 4.8 NW 13 26 7 14 - - 0.0
02/06:30pm 18.3 14.5 7.4 49 5.5 WSW 17 26 9 14 - - 0.0
02/06:00pm 17.3 14.2 7.4 52 5.0 WSW 13 24 7 13 - - 0.0
02/05:30pm 18.8 15.6 6.9 46 6.0 W 13 17 7 9 - - 0.0
02/05:00pm 19.6 15.7 7.0 44 6.4 WNW 17 22 9 12 - - 0.0
02/04:30pm 21.5 17.2 7.0 39 7.4 WNW 19 24 10 13 - - 0.0
02/04:00pm 22.5 17.9 6.3 35 8.3 WNW 20 33 11 18 - - 0.0
02/03:30pm 23.3 18.4 7.0 35 8.5 WNW 22 35 12 19 - - 0.0
02/03:00pm 23.8 18.9 7.0 34 8.8 NW 22 32 12 17 - - 0.0
02/02:30pm 24.1 18.9 7.3 34 8.8 NNW 24 39 13 21 - - 0.0
02/02:13pm 23.3 17.3 7.0 35 8.5 NW 28 48 15 26 - - 0.0
02/02:00pm 22.3 19.5 8.4 41 7.4 NNE 13 28 7 15 - - 0.0
02/01:30pm 21.6 20.0 8.1 42 7.1 SW 6 17 3 9 - - 0.0
02/01:00pm 20.1 18.7 9.4 50 5.7 NE 7 11 4 6 - - 0.0
02/12:30pm 18.1 16.4 8.4 53 5.0 SW 7 11 4 6 - - 0.0
02/12:00pm 18.0 16.5 8.3 53 5.0 NNW 6 7 3 4 - - 0.0
02/11:30am 18.3 16.5 8.0 51 5.3 N 7 13 4 7 - - 0.0
02/11:00am 17.8 16.1 8.4 54 4.8 N 7 11 4 6 - - 0.0
02/10:30am 15.9 14.1 7.1 56 4.4 N 6 11 3 6 - - 0.0
02/10:00am 15.3 14.3 9.0 66 3.2 WSW 4 6 2 3 - - 0.0
02/09:30am 13.0 12.9 9.3 78 1.9 CALM 0 0 0 0 - - 0.0
02/09:00am 12.3 11.7 9.0 80 1.7 SW 2 4 1 2 - - 0.0
02/08:30am 8.9 7.3 8.8 99 0.0 SW 7 13 4 7 - - 0.0
02/08:00am 7.0 5.0 7.0 100 0.0 NNW 7 9 4 5 - - 0.0
02/07:30am 6.2 4.0 6.2 100 0.0 NNW 7 9 4 5 - - 0.0
02/07:00am 5.3 2.9 5.3 100 0.0 NNW 7 9 4 5 - - 0.0
02/06:30am 5.3 3.1 5.3 100 0.0 NNW 6 7 3 4 - - 0.0
02/06:00am 5.7 4.3 5.7 100 0.0 NNW 2 6 1 3 - - 0.0
02/05:30am 6.5 5.7 6.4 99 0.0 CALM 0 0 0 0 - - 0.0
02/05:00am 6.7 4.8 6.6 99 0.0 NNW 6 7 3 4 - - 0.0
02/04:30am 6.8 4.9 6.7 99 0.0 NNW 6 7 3 4 - - 0.0
02/04:00am 7.9 7.1 6.7 92 0.6 CALM 0 2 0 1 - - 0.0
02/03:30am 7.8 6.5 7.5 98 0.1 NNW 4 6 2 3 - - 0.0
02/03:00am 7.6 6.0 6.5 93 0.5 NNW 4 6 2 3 - - 0.0
02/02:30am 8.4 7.7 6.9 90 0.7 CALM 0 0 0 0 - - 0.0
02/02:00am 8.3 7.2 6.9 91 0.7 NNW 2 4 1 2 - - 0.0
02/01:30am 7.4 5.1 5.9 90 0.7 NNW 7 9 4 5 - - 0.0
02/01:00am 8.3 6.2 5.8 84 1.1 NNW 6 6 3 3 - - 0.0
02/12:30am 9.3 7.2 5.9 79 1.6 NNW 6 6 3 3 - - 0.0
02/12:00am 9.7 8.0 6.1 78 1.7 NNW 4 6 2 3 - - 0.0

Other Formats:

Comma delimited format used in spreadsheet applications
http://www.bom.gov.au/fwo/IDN60801/IDN60801.94752.axf

JavaScript Object Notation format (JSON) in row-major order
http://www.bom.gov.au/fwo/IDN60801/IDN60801.94752.json